Terminal Aerodrome Forecast
Issued by NWS Atlanta, GA

Home | Current Version | Previous Version | Text Only | Print | Product List | Glossary On
Versions: 1 2 3 4 5 6 7 8 9 10 11 12 13 14 15 16 17 18 19 20 21 22 23 24 25 26 27 28 29 30 31 32 33 34
000
FTUS42 KFFC 232320
TAFAHN
TAF
KAHN 232320Z 2400/2424 09003KT P6SM FEW250
     FM240600 00000KT P6SM SCT040
     FM241000 14004KT 4SM BR BKN010
     FM241500 16006KT P6SM SCT040=

USA.gov is the U.S. government's official web portal to all federal, state and local government web resources and services.